• Join FlightAware (Why Join?)
  • Login
  • US Flag 
04:11PM EDT


 

Airport Tracker/Info


-or-


 

Live Flight TrackerFlight Track Log ✈ CHQ4999 ✈ 30-Apr-2013 ✈ KBOS - KCLE

Flight Track Log - Related Links

Times and Time Zones

All times are in EDT time to prevent confusion due to time zone crossing. See the CHQ4999 flight status page for this flight to view local times or setup timezone preferences in your user account.

Time Position Orientation Groundspeed Altitude Reporting Facility
EDT Latitude Longitude Course Direction KTS MPH feet Rate Location/Type
06:23AM 42.3500 -71.0167 300° West 163 188 600  Level KA90
06:24AM 42.3167 -70.9667 132° Southeast 207 238 2,900 1,440 Climbing KA90
06:25AM 42.3167 -70.8833 90° East 228 262 3,700 1,560 Climbing KA90
06:27AM 42.6160 -70.9029 308° West  Level FlightAware Approximate
06:27AM 42.3406 -70.7883 71° East 255 293 6,400  Level Boston Center
06:28AM 42.6700 -71.0211 300° West  Level FlightAware Approximate
06:28AM 42.3958 -70.7308 38° Northeast 245 282 9,000  Level Boston Center
06:29AM 42.4728 -70.7231 North 245 282 11,200 1,980 Climbing Boston Center
06:30AM 42.5447 -70.7803 330° Northwest 243 280 13,000 1,920 Climbing Boston Center
06:31AM 42.5942 -70.8889 302° West 267 307 15,100 2,040 Climbing Boston Center
06:32AM 42.6433 -70.9894 304° West 315 362 17,100 1,740 Climbing Boston Center
06:33AM 42.6925 -71.0900 304° West 329 379 18,600 1,500 Climbing Boston Center
06:34AM 42.7394 -71.1850 304° West 329 379 20,100 1,500 Climbing Boston Center
06:35AM 42.7864 -71.2914 301° West 329 379 21,700 1,740 Climbing Boston Center
06:36AM 42.7981 -71.4214 277° West 329 379 23,600 1,800 Climbing Boston Center
06:37AM 42.8136 -71.5458 280° West 335 386 25,400 1,680 Climbing Boston Center
06:38AM 42.8208 -71.6703 275° West 335 386 27,000 1,560 Climbing Boston Center
06:39AM 42.8319 -71.7917 277° West 330 380 28,600 1,620 Climbing Boston Center
06:40AM 42.8431 -71.9133 277° West 330 380 30,300 1,680 Climbing Boston Center
06:41AM 42.8542 -72.0464 277° West 330 380 32,000 1,500 Climbing Boston Center
06:42AM 42.8669 -72.1653 278° West 330 380 33,400 1,200 Climbing Boston Center
06:43AM 42.8756 -72.2589 277° West 330 380 34,500 1,140 Climbing Boston Center
06:44AM 42.8922 -72.3833 280° West 325 374 35,700 720 Climbing Boston Center
06:45AM 42.9006 -72.5053 275° West 319 367 36,000 120 Climbing Boston Center
06:46AM 42.9131 -72.6356 278° West 327 376 36,000  Level Boston Center
06:47AM 42.9167 -72.7717 272° West 347 399 36,000  Level Boston Center
06:48AM 42.9289 -72.9081 277° West 363 418 36,000  Level Boston Center
06:49AM 42.9469 -73.0614 279° West 375 432 36,000  Level Boston Center
06:50AM 42.9564 -73.1975 275° West 375 432 36,000  Level Boston Center
06:51AM 42.9681 -73.3311 277° West 369 425 36,000  Level Boston Center
06:52AM 42.9731 -73.4617 273° West 363 418 36,000  Level Boston Center
06:53AM 42.9822 -73.5922 276° West 357 411 36,000  Level Boston Center
06:54AM 42.9933 -73.7261 277° West 352 405 36,000  Level Boston Center
06:55AM 43.0044 -73.8567 277° West 352 405 36,000  Level Boston Center
06:56AM 43.0150 -73.9906 276° West 352 405 36,000  Level Boston Center
06:57AM 43.0236 -74.1242 275° West 352 405 36,000  Level Boston Center
06:58AM 43.0342 -74.2522 276° West 352 405 36,000  Level Boston Center
06:59AM 43.0444 -74.3833 276° West 352 405 36,000  Level Boston Center
07:00AM 43.0547 -74.5114 276° West 352 405 36,000  Level Boston Center
07:01AM 43.0628 -74.6425 275° West 352 405 36,000  Level Boston Center
07:02AM 43.0619 -74.7817 270° West 352 405 36,000  Level Boston Center
07:03AM 43.0528 -74.9178 265° West 352 405 36,000  Level Boston Center
07:04AM 43.0414 -75.0594 264° West 365 420 36,000  Level Boston Center
07:05AM 43.0319 -75.1983 265° West 371 427 36,000  Level Boston Center
07:06AM 43.0242 -75.3400 266° West 371 427 36,000  Level Boston Center
07:07AM 43.0122 -75.4814 263° West 371 427 36,000  Level Boston Center
07:08AM 43.0042 -75.6172 265° West 371 427 36,000  Level Boston Center
07:09AM 42.9967 -75.7361 265° West 365 420 36,000  Level Boston Center
07:11AM 42.9731 -76.0367 264° West 349 402 36,000  Level Cleveland Center
07:12AM 42.9614 -76.1625 263° West 344 396 36,000  Level Cleveland Center
07:13AM 42.9536 -76.2881 265° West 344 396 36,000  Level Cleveland Center
07:14AM 42.9439 -76.4192 264° West 344 396 36,000  Level Cleveland Center
07:15AM 42.9339 -76.5475 264° West 344 396 36,000  Level Cleveland Center
07:16AM 42.9236 -76.6786 264° West 349 402 36,000  Level Cleveland Center
07:17AM 42.9114 -76.8097 263° West 354 407 36,000  Level Cleveland Center
07:18AM 42.9011 -76.9436 264° West 354 407 36,000  Level Cleveland Center
07:19AM 42.8781 -77.0756 257° West 354 407 36,000  Level Cleveland Center
07:20AM 42.8294 -77.1914 240° Southwest 354 407 36,000  Level Cleveland Center
07:21AM 42.7825 -77.3042 240° Southwest 354 407 36,000  Level Cleveland Center
07:22AM 42.7336 -77.4200 240° Southwest 354 407 36,000  Level Cleveland Center
07:23AM 42.6847 -77.5356 240° Southwest 354 407 36,000  Level Cleveland Center
07:24AM 42.6356 -77.6481 239° Southwest 354 407 36,000  Level Cleveland Center
07:25AM 42.5861 -77.7603 239° Southwest 354 407 36,000  Level Cleveland Center
07:26AM 42.5350 -77.8808 240° Southwest 354 407 36,000  Level Cleveland Center
07:27AM 42.4853 -77.9928 239° Southwest 349 402 36,000  Level Cleveland Center
07:28AM 42.4356 -78.1044 239° Southwest 349 402 36,000 -60 Level Cleveland Center
07:29AM 42.3900 -78.2133 240° Southwest 344 396 35,900 -780 Descending Cleveland Center
07:30AM 42.3383 -78.3331 240° Southwest 355 409 34,500 -960 Descending Cleveland Center
07:31AM 42.2842 -78.4558 239° Southwest 374 430 34,000 -300 Descending Cleveland Center
07:32AM 42.2300 -78.5725 238° Southwest 374 430 34,000  Level Cleveland Center
07:33AM 42.1819 -78.6806 239° Southwest 374 430 34,000 -60 Level Cleveland Center
07:34AM 42.1258 -78.8167 241° Southwest 391 450 33,900 -1,020 Descending Cleveland Center
07:35AM 42.0922 -78.9575 252° West 401 461 32,000 -1,920 Descending Cleveland Center
07:36AM 42.0567 -79.0981 251° West 401 461 30,100 -1,920 Descending Cleveland Center
07:37AM 42.0208 -79.2333 250° West 401 461 28,200 -1,980 Descending Cleveland Center
07:38AM 41.9869 -79.3708 252° West 390 449 26,200 -1,980 Descending Cleveland Center
07:39AM 41.9508 -79.5139 251° West 390 449 24,300 -2,040 Descending Cleveland Center
07:40AM 41.9064 -79.6764 250° West 415 478 22,200 -1,200 Descending Cleveland Center
07:41AM 41.8719 -79.8192 252° West 415 478 22,000 -120 Descending Cleveland Center
07:42AM 41.8372 -79.9506 251° West 394 453 22,000  Level Cleveland Center
07:43AM 41.8047 -80.0817 252° West 389 448 22,000 -240 Level Cleveland Center
07:44AM 41.7675 -80.2211 250° West 389 448 21,600 -1,140 Descending Cleveland Center
07:45AM 41.7325 -80.3494 250° West 384 442 19,800 -1,800 Descending Cleveland Center
07:46AM 41.6994 -80.4803 251° West 379 436 18,000 -1,800 Descending Cleveland Center
07:47AM 41.6661 -80.6025 250° West 364 419 16,200 -1,920 Descending Cleveland Center
07:48AM 41.6367 -80.7164 251° West 364 419 14,200 -1,800 Descending Cleveland Center
07:49AM 41.6033 -80.8414 250° West 364 419 12,700 -1,680 Descending Cleveland Center
07:50AM 41.5736 -80.9467 249° West 329 379 11,200 -1,440 Descending Cleveland Center
07:51AM 41.5464 -81.0492 250° West 335 386 10,400 -960 Descending Cleveland Center
07:51AM 41.5400 -81.0742 251° West 346 398 10,100 -420 Descending Cleveland Center
07:52AM 41.5333 -81.1628 264° West 313 360 10,000 -120 Descending Cleveland Center
07:52AM 41.5331 -81.1878 269° West 324 373 10,000 -300 Level Cleveland Center
07:53AM 41.5325 -81.2906 270° West 312 359 9,700 -1,260 Descending Cleveland Center
07:53AM 41.5300 -81.3597 267° West 269 310 8,200 -1,920 Descending Cleveland Center
07:54AM 41.5297 -81.4014 270° West 287 330 7,400 -1,680 Descending Cleveland Center
07:54AM 41.5250 -81.4650 264° West 267 307 6,500 -1,320 Descending Cleveland Center
07:55AM 41.5269 -81.4928 275° West 262 302 6,100 -600 Descending Cleveland Center
07:55AM 41.5267 -81.5317 269° West 190 219 6,000 -120 Descending Cleveland Center
07:56AM 41.5264 -81.5650 269° West 216 249 6,000  Level Cleveland Center
07:56AM 41.5281 -81.5928 275° West 189 217 6,000 -840 Level Cleveland Center
07:57AM 41.5361 -81.6428 282° West 196 226 5,200 -1,380 Descending Cleveland Center
07:57AM 41.5336 -81.6761 264° West 197 227 4,500 -1,320 Descending Cleveland Center
07:58AM 41.5125 -81.6978 218° Southwest 174 200 3,900 -1,200 Descending Cleveland Center
07:58AM 41.4956 -81.7253 231° Southwest 174 200 3,200 -1,020 Descending Cleveland Center
07:59AM 41.4831 -81.7417 224° Southwest 169 194 2,900 -780 Descending Cleveland Center
07:59AM 41.4725 -81.7581 229° Southwest 122 140 2,500 -900 Descending Cleveland Center